createdAt,value
2019-01-16T00:00:33.606Z,0.00
2019-01-16T00:01:33.592Z,0.00
2019-01-16T00:02:33.584Z,0.00
2019-01-16T00:03:33.581Z,0.00
2019-01-16T00:04:33.561Z,0.00
2019-01-16T00:05:33.550Z,0.00
2019-01-16T00:06:33.536Z,0.00
2019-01-16T00:07:33.527Z,0.00
2019-01-16T00:08:33.517Z,0.00
2019-01-16T00:09:33.508Z,0.00
2019-01-16T00:10:33.493Z,0.00
2019-01-16T00:11:33.510Z,0.00
2019-01-16T00:12:33.470Z,0.00
2019-01-16T00:13:33.460Z,0.00
2019-01-16T00:14:33.448Z,0.00
2019-01-16T00:15:33.437Z,0.00
2019-01-16T00:16:33.428Z,0.00
2019-01-16T00:17:33.418Z,0.00
2019-01-16T00:18:33.406Z,0.00
2019-01-16T00:19:33.392Z,0.00
2019-01-16T00:20:33.380Z,0.00
2019-01-16T00:21:33.368Z,0.00
2019-01-16T00:22:33.363Z,0.00
2019-01-16T00:23:33.347Z,0.00
2019-01-16T00:24:33.337Z,0.00
2019-01-16T00:25:33.324Z,0.00
2019-01-16T00:26:33.313Z,0.00
2019-01-16T00:27:33.303Z,0.00
2019-01-16T00:28:33.292Z,0.00
2019-01-16T00:29:33.298Z,0.00
2019-01-16T00:30:33.269Z,0.00
2019-01-16T00:31:33.258Z,0.00
2019-01-16T00:32:33.246Z,0.00
2019-01-16T00:33:33.234Z,0.00
2019-01-16T00:34:33.223Z,0.00
2019-01-16T00:35:33.213Z,0.00
2019-01-16T00:36:33.202Z,0.00
2019-01-16T00:37:33.192Z,0.00
2019-01-16T00:38:33.179Z,0.00
2019-01-16T00:39:33.169Z,0.00
2019-01-16T00:40:33.157Z,0.00
2019-01-16T00:41:33.145Z,0.00
2019-01-16T00:42:33.137Z,0.00
2019-01-16T00:43:33.126Z,0.00
2019-01-16T00:44:33.112Z,0.00
2019-01-16T00:45:33.103Z,0.00
2019-01-16T00:46:33.090Z,0.00
2019-01-16T00:47:33.078Z,0.00
2019-01-16T00:48:33.069Z,0.00
2019-01-16T00:49:33.056Z,0.00
2019-01-16T00:50:33.047Z,0.00
2019-01-16T00:51:33.036Z,0.00
2019-01-16T00:52:33.024Z,0.00
2019-01-16T00:53:33.015Z,0.00
2019-01-16T00:54:33.002Z,0.00
2019-01-16T00:55:32.989Z,0.00
2019-01-16T00:56:32.978Z,0.00
2019-01-16T00:57:32.967Z,0.00
2019-01-16T00:58:32.954Z,0.00
2019-01-16T00:59:33.032Z,0.00
2019-01-16T01:00:32.934Z,0.00
2019-01-16T01:01:32.922Z,0.00
2019-01-16T01:02:32.910Z,0.00
2019-01-16T01:03:32.903Z,0.00
2019-01-16T01:04:32.888Z,0.00
2019-01-16T01:05:32.880Z,0.00
2019-01-16T01:06:32.865Z,0.00
2019-01-16T01:07:32.854Z,0.00
2019-01-16T01:08:32.843Z,0.00
2019-01-16T01:09:32.832Z,0.00
2019-01-16T01:10:32.820Z,0.00
2019-01-16T01:11:32.809Z,0.00
2019-01-16T01:12:32.800Z,0.00
2019-01-16T01:13:32.788Z,0.00
2019-01-16T01:14:32.776Z,0.00
2019-01-16T01:15:32.765Z,0.00
2019-01-16T01:16:32.754Z,0.00
2019-01-16T01:17:32.743Z,0.00
2019-01-16T01:18:32.746Z,0.00
2019-01-16T01:19:32.720Z,0.00
2019-01-16T01:20:32.710Z,0.00
2019-01-16T01:21:32.698Z,0.00
2019-01-16T01:22:32.689Z,0.00
2019-01-16T01:23:32.674Z,0.00
2019-01-16T01:24:32.665Z,0.00
2019-01-16T01:25:32.653Z,0.00
2019-01-16T01:26:32.641Z,0.00
2019-01-16T01:27:32.630Z,0.00
2019-01-16T01:28:32.619Z,0.00
2019-01-16T01:29:32.608Z,0.00
2019-01-16T01:30:32.597Z,0.00
2019-01-16T01:31:32.585Z,0.00
2019-01-16T01:32:32.577Z,0.00
2019-01-16T01:33:32.564Z,0.00
2019-01-16T01:34:32.552Z,0.00
2019-01-16T01:35:32.541Z,0.00
2019-01-16T01:36:32.531Z,0.00
2019-01-16T01:37:32.518Z,0.00
2019-01-16T01:38:32.509Z,0.00
2019-01-16T01:39:32.498Z,0.00
2019-01-16T01:40:32.485Z,0.00
2019-01-16T01:41:32.474Z,0.00
2019-01-16T01:42:32.462Z,0.00
2019-01-16T01:43:32.455Z,0.00
2019-01-16T01:44:32.441Z,0.00
2019-01-16T01:45:32.428Z,0.00
2019-01-16T01:46:32.419Z,0.00
2019-01-16T01:47:32.406Z,0.00
2019-01-16T01:48:39.740Z,0.00
2019-01-16T01:49:33.383Z,0.00
2019-01-16T01:50:32.374Z,0.00
2019-01-16T01:51:32.364Z,0.00
2019-01-16T01:52:32.350Z,0.00
2019-01-16T01:53:32.339Z,0.00
2019-01-16T01:54:32.328Z,0.00
2019-01-16T01:55:32.317Z,0.00
2019-01-16T01:56:32.307Z,0.00
2019-01-16T01:57:32.294Z,0.00
2019-01-16T01:58:32.284Z,0.00
2019-01-16T01:59:32.273Z,0.00
2019-01-16T02:00:32.261Z,0.00
2019-01-16T02:01:32.250Z,0.00
2019-01-16T02:02:32.240Z,0.00
2019-01-16T02:03:32.227Z,0.00
2019-01-16T02:04:32.217Z,0.00
2019-01-16T02:05:32.205Z,0.00
2019-01-16T02:06:32.193Z,0.00
2019-01-16T02:07:32.185Z,0.00
2019-01-16T02:08:32.171Z,0.00
2019-01-16T02:09:32.161Z,0.00
2019-01-16T02:10:32.148Z,0.00
2019-01-16T02:11:32.137Z,0.00
2019-01-16T02:12:32.127Z,0.00
2019-01-16T02:13:32.131Z,0.00
2019-01-16T02:14:32.103Z,0.00
2019-01-16T02:15:32.092Z,0.00
2019-01-16T02:16:32.081Z,0.00
2019-01-16T02:17:32.070Z,0.00
2019-01-16T02:18:32.060Z,0.00
2019-01-16T02:19:32.047Z,0.00
2019-01-16T02:20:32.036Z,0.00
2019-01-16T02:21:32.027Z,0.00
2019-01-16T02:22:32.018Z,0.00
2019-01-16T02:23:32.004Z,0.00
2019-01-16T02:24:31.993Z,0.00
2019-01-16T02:25:31.981Z,0.00
2019-01-16T02:26:31.969Z,0.00
2019-01-16T02:27:31.959Z,0.00
2019-01-16T02:28:31.950Z,0.00
2019-01-16T02:29:31.935Z,0.00
2019-01-16T02:30:31.926Z,0.00
2019-01-16T02:31:31.914Z,0.00
2019-01-16T02:32:31.928Z,0.00
2019-01-16T02:33:31.892Z,0.00
2019-01-16T02:34:31.882Z,0.00
2019-01-16T02:35:31.869Z,0.00
2019-01-16T02:36:31.857Z,0.00
2019-01-16T02:37:31.847Z,0.00
2019-01-16T02:38:31.838Z,0.00
2019-01-16T02:39:31.824Z,0.00
2019-01-16T02:40:31.815Z,0.00
2019-01-16T02:41:31.802Z,0.00
2019-01-16T02:42:31.790Z,0.00
2019-01-16T02:43:31.783Z,0.00
2019-01-16T02:44:31.769Z,0.00
2019-01-16T02:45:31.757Z,0.00
2019-01-16T02:46:31.745Z,0.00
2019-01-16T02:47:31.735Z,0.00
2019-01-16T02:48:31.724Z,0.00
2019-01-16T02:49:31.735Z,0.00
2019-01-16T02:50:31.701Z,0.00
2019-01-16T02:51:31.697Z,0.00
2019-01-16T02:52:31.680Z,0.00
2019-01-16T02:53:31.668Z,0.00
2019-01-16T02:54:31.655Z,0.00
2019-01-16T02:55:31.646Z,0.00
2019-01-16T02:56:31.638Z,0.00
2019-01-16T02:57:31.624Z,0.00
2019-01-16T02:58:31.614Z,0.00
2019-01-16T02:59:31.601Z,0.00
2019-01-16T03:00:31.590Z,0.00
2019-01-16T03:01:31.581Z,0.00
2019-01-16T03:02:31.567Z,0.00
2019-01-16T03:03:31.557Z,0.00
2019-01-16T03:04:31.550Z,0.00
2019-01-16T03:05:31.536Z,0.00
2019-01-16T03:06:31.524Z,0.00
2019-01-16T03:07:31.511Z,0.00
2019-01-16T03:08:31.501Z,0.00
2019-01-16T03:09:31.489Z,0.00
2019-01-16T03:10:31.478Z,0.00
2019-01-16T03:11:31.466Z,0.00
2019-01-16T03:12:31.462Z,0.00
2019-01-16T03:13:31.445Z,0.00
2019-01-16T03:14:31.432Z,0.00
2019-01-16T03:15:31.432Z,0.00
2019-01-16T03:16:31.412Z,0.00
2019-01-16T03:17:31.400Z,0.00
2019-01-16T03:18:31.388Z,0.00
2019-01-16T03:19:31.378Z,0.00
2019-01-16T03:20:31.365Z,0.00
2019-01-16T03:21:31.359Z,0.00
2019-01-16T03:22:31.342Z,0.00
2019-01-16T03:23:31.332Z,0.00
2019-01-16T03:24:31.322Z,0.00
2019-01-16T03:25:31.316Z,0.00
2019-01-16T03:26:31.299Z,0.00
2019-01-16T03:27:31.289Z,0.00
2019-01-16T03:28:31.276Z,0.00
2019-01-16T03:29:31.266Z,0.00
2019-01-16T03:30:31.256Z,0.00
2019-01-16T03:31:31.246Z,0.00
2019-01-16T03:32:31.241Z,0.00
2019-01-16T03:33:31.222Z,0.00
2019-01-16T03:34:31.210Z,0.00
2019-01-16T03:35:31.197Z,0.00
2019-01-16T03:36:31.191Z,0.00
2019-01-16T03:37:31.179Z,0.00
2019-01-16T03:38:31.164Z,0.00
2019-01-16T03:39:31.170Z,0.00
2019-01-16T03:40:31.142Z,0.00
2019-01-16T03:41:31.137Z,0.00
2019-01-16T03:42:31.121Z,0.00
2019-01-16T03:43:31.110Z,0.00
2019-01-16T03:44:31.102Z,0.00
2019-01-16T03:45:31.088Z,0.00
2019-01-16T03:46:31.083Z,0.00
2019-01-16T03:47:31.065Z,0.00
2019-01-16T03:48:31.056Z,0.00
2019-01-16T03:49:31.043Z,0.00
2019-01-16T03:50:31.033Z,0.00
2019-01-16T03:51:31.030Z,0.00
2019-01-16T03:52:31.009Z,0.00
2019-01-16T03:53:30.996Z,0.00
2019-01-16T03:54:30.994Z,0.00
2019-01-16T03:55:30.976Z,0.00
2019-01-16T03:56:30.976Z,0.00
2019-01-16T03:57:30.955Z,0.00
2019-01-16T03:58:30.941Z,0.00
2019-01-16T03:59:30.939Z,0.00
2019-01-16T04:00:30.922Z,0.00
2019-01-16T04:01:30.907Z,0.00
2019-01-16T04:02:30.898Z,0.00
2019-01-16T04:03:30.891Z,0.00
2019-01-16T04:04:30.875Z,0.00
2019-01-16T04:05:30.870Z,0.00
2019-01-16T04:06:30.854Z,0.00
2019-01-16T04:07:30.842Z,0.00
2019-01-16T04:08:30.832Z,0.00
2019-01-16T04:09:30.820Z,0.00
2019-01-16T04:10:30.817Z,0.00
2019-01-16T04:11:30.805Z,0.00
2019-01-16T04:12:30.787Z,0.00
2019-01-16T04:13:30.777Z,0.00
2019-01-16T04:14:30.765Z,0.00
2019-01-16T04:15:30.752Z,0.00
2019-01-16T04:16:30.742Z,0.00
2019-01-16T04:17:30.734Z,0.00
2019-01-16T04:18:30.718Z,0.00
2019-01-16T04:19:30.706Z,0.00
2019-01-16T04:20:30.697Z,0.00
2019-01-16T04:21:30.685Z,0.00
2019-01-16T04:22:30.674Z,0.00
2019-01-16T04:23:30.683Z,0.00
2019-01-16T04:24:30.652Z,0.00
2019-01-16T04:25:30.641Z,0.00
2019-01-16T04:26:30.637Z,0.00
2019-01-16T04:27:30.620Z,0.00
2019-01-16T04:28:30.622Z,0.00
2019-01-16T04:29:30.606Z,0.00
2019-01-16T04:30:30.595Z,0.00
2019-01-16T04:31:30.572Z,0.00
2019-01-16T04:32:30.561Z,0.00
2019-01-16T04:33:30.549Z,0.00
2019-01-16T04:34:30.541Z,0.00
2019-01-16T04:35:30.527Z,0.00
2019-01-16T04:36:30.516Z,0.00
2019-01-16T04:37:30.509Z,0.00
2019-01-16T04:38:30.497Z,0.00
2019-01-16T04:39:30.484Z,0.00
2019-01-16T04:40:30.472Z,0.00
2019-01-16T04:41:30.488Z,0.00
2019-01-16T04:42:30.450Z,0.00
2019-01-16T04:43:30.441Z,0.00
2019-01-16T04:44:30.427Z,0.00
2019-01-16T04:45:30.415Z,0.00
2019-01-16T04:46:30.405Z,0.00
2019-01-16T04:47:30.393Z,0.00
2019-01-16T04:48:30.442Z,0.00
2019-01-16T04:49:30.808Z,0.00
2019-01-16T04:50:30.359Z,0.00
2019-01-16T04:51:30.349Z,0.00
2019-01-16T04:52:30.336Z,0.00
2019-01-16T04:53:30.326Z,0.00
2019-01-16T04:54:30.315Z,0.00
2019-01-16T04:55:30.304Z,0.00
2019-01-16T04:56:30.294Z,0.00
2019-01-16T04:57:30.282Z,0.00
2019-01-16T04:58:30.271Z,0.00
2019-01-16T04:59:30.261Z,0.00
2019-01-16T05:00:30.247Z,0.00
2019-01-16T05:01:30.235Z,0.00
2019-01-16T05:02:30.225Z,0.00
2019-01-16T05:03:30.216Z,0.00
2019-01-16T05:04:30.209Z,0.00
2019-01-16T05:05:30.192Z,0.00
2019-01-16T05:06:30.183Z,0.00
2019-01-16T05:07:30.171Z,0.00
2019-01-16T05:08:30.159Z,0.00
2019-01-16T05:09:30.148Z,0.00
2019-01-16T05:10:30.137Z,0.00
2019-01-16T05:11:30.125Z,0.00
2019-01-16T05:12:30.114Z,0.00
2019-01-16T05:13:30.101Z,0.00
2019-01-16T05:14:30.090Z,0.00
2019-01-16T05:15:30.079Z,0.00
2019-01-16T05:16:30.069Z,0.00
2019-01-16T05:17:30.056Z,0.00
2019-01-16T05:18:30.047Z,0.00
2019-01-16T05:19:30.038Z,0.00
2019-01-16T05:20:30.024Z,0.00
2019-01-16T05:21:30.013Z,0.00
2019-01-16T05:22:30.000Z,0.00
2019-01-16T05:23:29.990Z,0.00
2019-01-16T05:24:29.984Z,0.00
2019-01-16T05:25:29.968Z,0.00
2019-01-16T05:26:29.956Z,0.00
2019-01-16T05:27:29.951Z,0.00
2019-01-16T05:28:29.941Z,0.00
2019-01-16T05:29:29.923Z,0.00
2019-01-16T05:30:29.911Z,0.00
2019-01-16T05:31:29.902Z,0.00
2019-01-16T05:32:29.896Z,0.00
2019-01-16T05:33:29.880Z,0.00
2019-01-16T05:34:29.869Z,0.00
2019-01-16T05:35:29.857Z,0.00
2019-01-16T05:36:29.846Z,0.00
2019-01-16T05:37:29.835Z,0.00
2019-01-16T05:38:29.823Z,0.00
2019-01-16T05:39:29.811Z,0.00
2019-01-16T05:40:29.803Z,0.00
2019-01-16T05:41:29.788Z,0.00
2019-01-16T05:42:29.780Z,0.00
2019-01-16T05:43:29.767Z,0.00
2019-01-16T05:44:29.756Z,0.00
2019-01-16T05:45:29.745Z,0.00
2019-01-16T05:46:29.733Z,0.00
2019-01-16T05:47:29.723Z,0.00
2019-01-16T05:48:29.711Z,0.00
2019-01-16T05:49:29.700Z,0.00
2019-01-16T05:50:29.689Z,0.00
2019-01-16T05:51:29.678Z,0.00
2019-01-16T05:52:29.665Z,0.00
2019-01-16T05:53:29.656Z,0.00
2019-01-16T05:54:29.647Z,0.00
2019-01-16T05:55:29.632Z,0.00
2019-01-16T05:56:29.620Z,0.00
2019-01-16T05:57:29.611Z,0.00
2019-01-16T05:58:29.598Z,0.00
2019-01-16T05:59:29.587Z,0.00
2019-01-16T06:00:29.576Z,0.00
2019-01-16T06:01:29.565Z,0.00
2019-01-16T06:02:29.557Z,0.00
2019-01-16T06:03:29.734Z,0.00
2019-01-16T06:04:29.532Z,0.00
2019-01-16T06:05:29.520Z,0.00
2019-01-16T06:06:29.509Z,0.00
2019-01-16T06:07:29.499Z,0.00
2019-01-16T06:08:29.489Z,0.00
2019-01-16T06:09:29.475Z,0.00
2019-01-16T06:10:29.467Z,0.00
2019-01-16T06:11:29.454Z,0.00
2019-01-16T06:12:29.444Z,0.00
2019-01-16T06:13:29.432Z,0.00
2019-01-16T06:14:29.419Z,0.00
2019-01-16T06:15:29.409Z,0.00
2019-01-16T06:16:29.397Z,0.00
2019-01-16T06:17:29.387Z,0.00
2019-01-16T06:18:29.378Z,0.00
2019-01-16T06:19:29.363Z,0.00
2019-01-16T06:20:29.352Z,0.00
2019-01-16T06:21:29.343Z,0.00
2019-01-16T06:22:30.463Z,0.00
2019-01-16T06:23:29.321Z,0.00
2019-01-16T06:24:29.307Z,0.00
2019-01-16T06:25:29.295Z,0.00
2019-01-16T06:26:29.286Z,0.00
2019-01-16T06:27:29.274Z,0.00
2019-01-16T06:28:29.263Z,0.00
2019-01-16T06:29:29.253Z,0.00
2019-01-16T06:30:29.247Z,0.00
2019-01-16T06:31:29.228Z,0.00
2019-01-16T06:32:29.221Z,0.00
2019-01-16T06:33:29.210Z,0.00
2019-01-16T06:34:29.196Z,0.00
2019-01-16T06:35:29.184Z,0.00
2019-01-16T06:36:29.177Z,0.00
2019-01-16T06:37:29.188Z,0.00
2019-01-16T06:38:29.155Z,0.00
2019-01-16T06:39:29.153Z,0.00
2019-01-16T06:40:29.129Z,0.00
2019-01-16T06:41:29.117Z,0.00
2019-01-16T06:42:29.106Z,0.00
2019-01-16T06:43:29.096Z,4.00
2019-01-16T06:44:30.780Z,4.00
2019-01-16T06:45:29.074Z,0.00
2019-01-16T06:46:29.060Z,4.00
2019-01-16T06:47:29.049Z,4.00
2019-01-16T06:48:29.038Z,4.00
2019-01-16T06:49:29.028Z,4.00
2019-01-16T06:50:29.016Z,8.00
2019-01-16T06:51:29.004Z,4.00
2019-01-16T06:52:28.993Z,8.00
2019-01-16T06:53:28.984Z,8.00
2019-01-16T06:54:28.973Z,8.00
2019-01-16T06:55:28.959Z,4.00
2019-01-16T06:56:28.949Z,8.00
2019-01-16T06:57:29.133Z,8.00
2019-01-16T06:58:28.927Z,12.00
2019-01-16T06:59:28.919Z,16.00
2019-01-16T07:00:28.905Z,16.00
2019-01-16T07:01:28.894Z,12.00
2019-01-16T07:02:28.882Z,16.00
2019-01-16T07:03:28.875Z,16.00
2019-01-16T07:04:28.870Z,20.00
2019-01-16T07:05:28.849Z,20.00
2019-01-16T07:06:28.894Z,20.00
2019-01-16T07:07:28.826Z,24.00
2019-01-16T07:08:28.814Z,32.00
2019-01-16T07:09:28.802Z,44.00
2019-01-16T07:10:28.792Z,48.00
2019-01-16T07:11:28.783Z,48.00
2019-01-16T07:12:28.772Z,56.00
2019-01-16T07:13:28.760Z,72.00
2019-01-16T07:14:28.747Z,68.00
2019-01-16T07:15:28.737Z,84.00
2019-01-16T07:16:28.728Z,88.00
2019-01-16T07:17:28.715Z,88.00
2019-01-16T07:18:28.704Z,84.00
2019-01-16T07:19:28.691Z,76.00
2019-01-16T07:20:28.681Z,92.00
2019-01-16T07:21:28.671Z,88.00
2019-01-16T07:22:28.661Z,68.00
2019-01-16T07:23:28.648Z,52.00
2019-01-16T07:24:28.637Z,72.00
2019-01-16T07:25:28.625Z,84.00
2019-01-16T07:26:28.616Z,104.00
2019-01-16T07:27:28.603Z,120.00
2019-01-16T07:28:28.597Z,128.00
2019-01-16T07:29:28.581Z,144.00
2019-01-16T07:30:28.569Z,140.00
2019-01-16T07:31:28.559Z,144.00
2019-01-16T07:32:28.548Z,128.00
2019-01-16T07:33:28.536Z,132.00
2019-01-16T07:34:28.524Z,116.00
2019-01-16T07:35:28.514Z,120.00
2019-01-16T07:36:28.502Z,144.00
2019-01-16T07:37:28.492Z,140.00
2019-01-16T07:38:28.478Z,168.00
2019-01-16T07:39:28.469Z,164.00
2019-01-16T07:40:28.458Z,168.00
2019-01-16T07:41:28.445Z,168.00
2019-01-16T07:42:28.438Z,188.00
2019-01-16T07:43:28.427Z,180.00
2019-01-16T07:44:28.414Z,196.00
2019-01-16T07:45:28.402Z,220.00
2019-01-16T07:46:28.391Z,232.00
2019-01-16T07:47:28.378Z,228.00
2019-01-16T07:48:28.371Z,232.00
2019-01-16T07:49:28.356Z,252.00
2019-01-16T07:50:28.345Z,284.00
2019-01-16T07:51:28.334Z,308.00
2019-01-16T07:52:28.322Z,288.00
2019-01-16T07:53:28.313Z,332.00
2019-01-16T07:54:28.301Z,324.00
2019-01-16T07:55:28.290Z,328.00
2019-01-16T07:56:28.278Z,316.00
2019-01-16T07:57:28.268Z,300.00
2019-01-16T07:58:28.255Z,256.00
2019-01-16T07:59:28.249Z,276.00
2019-01-16T08:00:28.234Z,244.00
2019-01-16T08:01:28.223Z,252.00
2019-01-16T08:02:28.212Z,288.00
2019-01-16T08:03:28.218Z,296.00
2019-01-16T08:04:28.189Z,316.00
2019-01-16T08:05:28.179Z,292.00
2019-01-16T08:06:28.167Z,248.00
2019-01-16T08:07:28.164Z,280.00
2019-01-16T08:08:28.144Z,248.00
2019-01-16T08:09:28.134Z,224.00
2019-01-16T08:10:28.125Z,276.00
2019-01-16T08:11:28.112Z,264.00
2019-01-16T08:12:28.099Z,224.00
2019-01-16T08:13:28.089Z,276.00
2019-01-16T08:14:28.079Z,276.00
2019-01-16T08:15:28.067Z,232.00
2019-01-16T08:16:28.057Z,180.00
2019-01-16T08:17:28.043Z,208.00
2019-01-16T08:18:28.034Z,236.00
2019-01-16T08:19:28.024Z,360.00
2019-01-16T08:20:28.009Z,388.00
2019-01-16T08:21:28.000Z,468.00
2019-01-16T08:22:27.988Z,588.00
2019-01-16T08:23:27.977Z,564.00
2019-01-16T08:24:27.968Z,496.00
2019-01-16T08:25:27.955Z,456.00
2019-01-16T08:26:27.944Z,456.00
2019-01-16T08:27:27.933Z,348.00
2019-01-16T08:28:27.922Z,384.00
2019-01-16T08:29:27.909Z,436.00
2019-01-16T08:30:27.910Z,460.00
2019-01-16T08:31:27.887Z,360.00
2019-01-16T08:32:27.879Z,384.00
2019-01-16T08:33:27.866Z,528.00
2019-01-16T08:34:27.852Z,524.00
2019-01-16T08:35:27.842Z,468.00
2019-01-16T08:36:27.830Z,440.00
2019-01-16T08:37:27.821Z,436.00
2019-01-16T08:38:27.809Z,368.00
2019-01-16T08:39:27.798Z,452.00
2019-01-16T08:40:27.788Z,476.00
2019-01-16T08:41:27.776Z,456.00
2019-01-16T08:42:27.766Z,364.00
2019-01-16T08:43:27.754Z,324.00
2019-01-16T08:44:27.744Z,344.00
2019-01-16T08:45:27.731Z,356.00
2019-01-16T08:46:27.720Z,352.00
2019-01-16T08:47:27.708Z,516.00
2019-01-16T08:48:27.698Z,688.00
2019-01-16T08:49:27.685Z,748.00
2019-01-16T08:50:32.445Z,716.00
2019-01-16T08:51:28.662Z,560.00
2019-01-16T08:52:27.652Z,724.00
2019-01-16T08:53:27.644Z,716.00
2019-01-16T08:54:27.630Z,788.00
2019-01-16T08:55:27.619Z,556.00
2019-01-16T08:56:27.608Z,532.00
2019-01-16T08:57:27.597Z,516.00
2019-01-16T08:58:27.586Z,516.00
2019-01-16T08:59:27.574Z,516.00
2019-01-16T09:00:27.563Z,488.00
2019-01-16T09:01:32.507Z,704.00
2019-01-16T09:02:28.540Z,716.00
2019-01-16T09:03:27.529Z,612.00
2019-01-16T09:04:27.542Z,544.00
2019-01-16T09:05:27.508Z,428.00
2019-01-16T09:06:27.499Z,372.00
2019-01-16T09:07:27.484Z,472.00
2019-01-16T09:08:27.524Z,592.00
2019-01-16T09:09:27.462Z,752.00
2019-01-16T09:10:27.453Z,736.00
2019-01-16T09:11:27.442Z,656.00
2019-01-16T09:12:27.429Z,612.00
2019-01-16T09:13:27.421Z,676.00
2019-01-16T09:14:27.413Z,644.00
2019-01-16T09:15:34.582Z,548.00
2019-01-16T09:16:28.383Z,512.00
2019-01-16T09:17:27.375Z,472.00
2019-01-16T09:18:27.364Z,440.00
2019-01-16T09:19:27.351Z,288.00
2019-01-16T09:20:27.397Z,320.00
2019-01-16T09:21:27.328Z,320.00
2019-01-16T09:22:27.320Z,388.00
2019-01-16T09:23:27.307Z,348.00
2019-01-16T09:24:27.294Z,336.00
2019-01-16T09:25:27.284Z,360.00
2019-01-16T09:26:27.273Z,376.00
2019-01-16T09:27:27.262Z,500.00
2019-01-16T09:28:27.249Z,564.00
2019-01-16T09:29:27.240Z,540.00
2019-01-16T09:30:27.372Z,492.00
2019-01-16T09:31:27.216Z,416.00
2019-01-16T09:32:27.206Z,468.00
2019-01-16T09:33:27.194Z,488.00
2019-01-16T09:34:27.184Z,416.00
2019-01-16T09:35:27.173Z,372.00
2019-01-16T09:36:27.162Z,348.00
2019-01-16T09:37:27.148Z,356.00
2019-01-16T09:38:27.140Z,448.00
2019-01-16T09:39:27.129Z,464.00
2019-01-16T09:40:27.118Z,440.00
2019-01-16T09:41:27.106Z,500.00
2019-01-16T09:42:27.095Z,572.00
2019-01-16T09:43:27.083Z,600.00
2019-01-16T09:44:27.071Z,676.00
2019-01-16T09:45:27.062Z,768.00
2019-01-16T09:46:27.051Z,540.00
2019-01-16T09:47:28.750Z,484.00
2019-01-16T09:48:27.026Z,436.00
2019-01-16T09:49:27.016Z,468.00
2019-01-16T09:50:27.006Z,456.00
2019-01-16T09:51:26.993Z,536.00
2019-01-16T09:52:26.982Z,584.00
2019-01-16T09:53:26.971Z,544.00
2019-01-16T09:54:26.961Z,548.00
2019-01-16T09:55:26.949Z,588.00
2019-01-16T09:56:26.938Z,552.00
2019-01-16T09:57:26.926Z,496.00
2019-01-16T09:58:26.915Z,684.00
2019-01-16T09:59:26.906Z,624.00
2019-01-16T10:00:26.895Z,484.00
2019-01-16T10:01:26.882Z,760.00
2019-01-16T10:02:26.871Z,872.00
2019-01-16T10:03:26.861Z,836.00
2019-01-16T10:04:26.848Z,712.00
2019-01-16T10:05:26.836Z,680.00
2019-01-16T10:06:26.826Z,780.00
2019-01-16T10:07:26.813Z,700.00
2019-01-16T10:08:26.804Z,584.00
2019-01-16T10:09:26.793Z,652.00
2019-01-16T10:10:26.782Z,588.00
2019-01-16T10:11:26.769Z,648.00
2019-01-16T10:12:26.762Z,652.00
2019-01-16T10:13:26.748Z,688.00
2019-01-16T10:14:26.736Z,732.00
2019-01-16T10:15:26.726Z,912.00
2019-01-16T10:16:26.714Z,844.00
2019-01-16T10:17:26.705Z,740.00
2019-01-16T10:18:26.693Z,836.00
2019-01-16T10:19:26.684Z,688.00
2019-01-16T10:20:26.669Z,632.00
2019-01-16T10:21:26.657Z,668.00
2019-01-16T10:22:26.646Z,612.00
2019-01-16T10:23:26.641Z,660.00
2019-01-16T10:24:26.628Z,700.00
2019-01-16T10:25:26.613Z,700.00
2019-01-16T10:26:26.604Z,676.00
2019-01-16T10:27:26.592Z,700.00
2019-01-16T10:28:26.581Z,684.00
2019-01-16T10:29:26.568Z,604.00
2019-01-16T10:30:26.558Z,572.00
2019-01-16T10:31:26.545Z,420.00
2019-01-16T10:32:26.537Z,352.00
2019-01-16T10:33:26.524Z,424.00
2019-01-16T10:34:26.513Z,488.00
2019-01-16T10:35:26.505Z,516.00
2019-01-16T10:36:26.490Z,588.00
2019-01-16T10:37:26.480Z,696.00
2019-01-16T10:38:26.469Z,748.00
2019-01-16T10:39:26.456Z,824.00
2019-01-16T10:40:26.445Z,752.00
2019-01-16T10:41:26.435Z,744.00
2019-01-16T10:42:26.422Z,676.00
2019-01-16T10:43:26.411Z,736.00
2019-01-16T10:44:26.402Z,940.00
2019-01-16T10:45:26.391Z,1108.00
2019-01-16T10:46:26.382Z,876.00
2019-01-16T10:47:26.366Z,780.00
2019-01-16T10:48:26.357Z,632.00
2019-01-16T10:49:26.345Z,536.00
2019-01-16T10:50:26.333Z,448.00
2019-01-16T10:51:26.322Z,512.00
2019-01-16T10:52:26.311Z,668.00
2019-01-16T10:53:26.299Z,764.00
2019-01-16T10:54:26.289Z,796.00
2019-01-16T10:55:26.279Z,868.00
2019-01-16T10:56:26.267Z,816.00
2019-01-16T10:57:26.990Z,848.00
2019-01-16T10:58:26.246Z,840.00
2019-01-16T10:59:26.233Z,888.00
2019-01-16T11:00:26.223Z,876.00
2019-01-16T11:01:26.211Z,932.00
2019-01-16T11:02:26.203Z,856.00
2019-01-16T11:03:26.190Z,804.00
2019-01-16T11:04:26.177Z,788.00
2019-01-16T11:05:26.166Z,876.00
2019-01-16T11:06:26.155Z,940.00
2019-01-16T11:07:26.144Z,896.00
2019-01-16T11:08:26.138Z,908.00
2019-01-16T11:09:26.127Z,852.00
2019-01-16T11:10:26.114Z,852.00
2019-01-16T11:11:26.100Z,776.00
2019-01-16T11:12:26.087Z,808.00
2019-01-16T11:13:26.143Z,832.00
2019-01-16T11:14:26.068Z,764.00
2019-01-16T11:15:26.053Z,792.00
2019-01-16T11:16:26.043Z,896.00
2019-01-16T11:17:26.034Z,884.00
2019-01-16T11:18:26.022Z,848.00
2019-01-16T11:19:26.009Z,1008.00
2019-01-16T11:20:25.998Z,1148.00
2019-01-16T11:21:25.996Z,1236.00
2019-01-16T11:22:25.976Z,1308.00
2019-01-16T11:23:25.967Z,1312.00
2019-01-16T11:24:25.955Z,1408.00
2019-01-16T11:25:25.944Z,1440.00
2019-01-16T11:26:25.931Z,1536.00
2019-01-16T11:27:25.921Z,1772.00
2019-01-16T11:28:25.909Z,1960.00
2019-01-16T11:29:25.898Z,1828.00
2019-01-16T11:30:25.887Z,1836.00
2019-01-16T11:31:25.875Z,1832.00
2019-01-16T11:32:25.865Z,1740.00
2019-01-16T11:33:25.857Z,1760.00
2019-01-16T11:34:25.855Z,1712.00
2019-01-16T11:35:25.831Z,1660.00
2019-01-16T11:36:25.821Z,1548.00
2019-01-16T11:37:25.809Z,1424.00
2019-01-16T11:38:25.797Z,1428.00
2019-01-16T11:39:25.794Z,1296.00
2019-01-16T11:40:25.775Z,1228.00
2019-01-16T11:41:25.768Z,1112.00
2019-01-16T11:42:25.753Z,1080.00
2019-01-16T11:43:25.742Z,1188.00
2019-01-16T11:44:25.729Z,1228.00
2019-01-16T11:45:25.719Z,1264.00
2019-01-16T11:46:25.708Z,1324.00
2019-01-16T11:47:25.699Z,1456.00
2019-01-16T11:48:25.687Z,1480.00
2019-01-16T11:49:25.675Z,1652.00
2019-01-16T11:50:25.663Z,1900.00
2019-01-16T11:51:25.652Z,1612.00
2019-01-16T11:52:25.641Z,1380.00
2019-01-16T11:53:25.636Z,1292.00
2019-01-16T11:54:25.619Z,1320.00
2019-01-16T11:55:25.610Z,1360.00
2019-01-16T11:56:25.596Z,1452.00
2019-01-16T11:57:25.585Z,1668.00
2019-01-16T11:58:25.574Z,1720.00
2019-01-16T11:59:25.574Z,1668.00
2019-01-16T12:00:25.554Z,1672.00
2019-01-16T12:01:25.542Z,1712.00
2019-01-16T12:02:25.530Z,1776.00
2019-01-16T12:03:25.520Z,1824.00
2019-01-16T12:04:25.511Z,1644.00
2019-01-16T12:05:25.502Z,1380.00
2019-01-16T12:06:25.484Z,1356.00
2019-01-16T12:07:25.475Z,1716.00
2019-01-16T12:08:25.463Z,2032.00
2019-01-16T12:09:25.467Z,1896.00
2019-01-16T12:10:25.439Z,1308.00
2019-01-16T12:11:25.429Z,1272.00
2019-01-16T12:12:25.418Z,1100.00
2019-01-16T12:13:25.406Z,1020.00
2019-01-16T12:14:25.396Z,1024.00
2019-01-16T12:15:25.385Z,932.00
2019-01-16T12:16:25.373Z,984.00
2019-01-16T12:17:25.362Z,880.00
2019-01-16T12:18:25.350Z,832.00
2019-01-16T12:19:25.338Z,852.00
2019-01-16T12:20:25.329Z,892.00
2019-01-16T12:21:26.526Z,1012.00
2019-01-16T12:22:25.307Z,964.00
2019-01-16T12:23:25.295Z,916.00
2019-01-16T12:24:25.283Z,976.00
2019-01-16T12:25:25.272Z,1012.00
2019-01-16T12:26:25.262Z,1100.00
2019-01-16T12:27:25.255Z,1268.00
2019-01-16T12:28:25.241Z,1168.00
2019-01-16T12:29:25.226Z,1176.00
2019-01-16T12:30:25.218Z,1084.00
2019-01-16T12:31:25.207Z,1196.00
2019-01-16T12:32:25.194Z,1176.00
2019-01-16T12:33:25.185Z,956.00
2019-01-16T12:34:25.172Z,1000.00
2019-01-16T12:35:25.159Z,952.00
2019-01-16T12:36:25.148Z,960.00
2019-01-16T12:37:25.141Z,956.00
2019-01-16T12:38:25.127Z,844.00
2019-01-16T12:39:25.118Z,900.00
2019-01-16T12:40:25.105Z,1108.00
2019-01-16T12:41:25.094Z,1260.00
2019-01-16T12:42:25.082Z,1280.00
2019-01-16T12:43:25.072Z,1192.00
2019-01-16T12:44:25.061Z,1096.00
2019-01-16T12:45:25.048Z,852.00
2019-01-16T12:46:25.041Z,984.00
2019-01-16T12:47:25.026Z,988.00
2019-01-16T12:48:25.017Z,1136.00
2019-01-16T12:49:25.004Z,1144.00
2019-01-16T12:50:24.995Z,928.00
2019-01-16T12:51:24.985Z,772.00
2019-01-16T12:52:24.969Z,876.00
2019-01-16T12:53:24.958Z,912.00